sensor_id;sensor_type;location;lat;lon;timestamp;pressure;altitude;pressure_sealevel;temperature
41654;BMP280;30790;52.030;7.110;2022-09-06T00:01:39;100848.63;;;22.94
41654;BMP280;30790;52.030;7.110;2022-09-06T00:04:06;100850.81;;;22.97
41654;BMP280;30790;52.030;7.110;2022-09-06T00:06:32;100844.78;;;22.95
41654;BMP280;30790;52.030;7.110;2022-09-06T00:08:57;100838.50;;;22.95
41654;BMP280;30790;52.030;7.110;2022-09-06T00:11:22;100839.88;;;22.97
41654;BMP280;30790;52.030;7.110;2022-09-06T00:13:47;100839.88;;;22.97
41654;BMP280;30790;52.030;7.110;2022-09-06T00:16:16;100843.19;;;22.99
41654;BMP280;30790;52.030;7.110;2022-09-06T00:18:42;100842.63;;;22.97
41654;BMP280;30790;52.030;7.110;2022-09-06T00:21:21;100837.94;;;22.93
41654;BMP280;30790;52.030;7.110;2022-09-06T00:23:47;100834.09;;;22.94
41654;BMP280;30790;52.030;7.110;2022-09-06T00:26:13;100839.88;;;22.97
41654;BMP280;30790;52.030;7.110;2022-09-06T00:28:39;100826.97;;;22.93
41654;BMP280;30790;52.030;7.110;2022-09-06T00:31:16;100837.13;;;22.97
41654;BMP280;30790;52.030;7.110;2022-09-06T00:33:42;100833.88;;;23.00
41654;BMP280;30790;52.030;7.110;2022-09-06T00:36:08;100831.66;;;22.97
41654;BMP280;30790;52.030;7.110;2022-09-06T00:38:35;100834.13;;;22.99
41654;BMP280;30790;52.030;7.110;2022-09-06T00:41:00;100835.50;;;22.96
41654;BMP280;30790;52.030;7.110;2022-09-06T00:43:25;100839.06;;;22.97
41654;BMP280;30790;52.030;7.110;2022-09-06T00:45:51;100835.50;;;22.96
41654;BMP280;30790;52.030;7.110;2022-09-06T00:48:17;100834.94;;;22.94
41654;BMP280;30790;52.030;7.110;2022-09-06T00:50:44;100831.88;;;22.91
41654;BMP280;30790;52.030;7.110;2022-09-06T00:53:11;100832.44;;;22.93
41654;BMP280;30790;52.030;7.110;2022-09-06T00:55:36;100825.88;;;22.94
41654;BMP280;30790;52.030;7.110;2022-09-06T00:58:02;100831.94;;;22.96
41654;BMP280;30790;52.030;7.110;2022-09-06T01:00:28;100825.84;;;22.89
41654;BMP280;30790;52.030;7.110;2022-09-06T01:02:53;100837.13;;;22.97
41654;BMP280;30790;52.030;7.110;2022-09-06T01:05:19;100832.19;;;22.94
41654;BMP280;30790;52.030;7.110;2022-09-06T01:13:03;100856.31;;;22.97
41654;BMP280;30790;52.030;7.110;2022-09-06T01:26:54;100833.00;;;22.95
41654;BMP280;30790;52.030;7.110;2022-09-06T01:29:35;100828.38;;;22.95
41654;BMP280;30790;52.030;7.110;2022-09-06T01:32:09;100818.25;;;22.96
41654;BMP280;30790;52.030;7.110;2022-09-06T01:34:43;100835.50;;;22.96
41654;BMP280;30790;52.030;7.110;2022-09-06T01:37:13;100839.56;;;22.94
41654;BMP280;30790;52.030;7.110;2022-09-06T01:39:40;100843.44;;;22.98
41654;BMP280;30790;52.030;7.110;2022-09-06T01:42:13;100840.97;;;22.96
41654;BMP280;30790;52.030;7.110;2022-09-06T01:44:42;100853.00;;;22.95
41654;BMP280;30790;52.030;7.110;2022-09-06T01:53:04;100844.78;;;22.95
41654;BMP280;30790;52.030;7.110;2022-09-06T01:55:41;100830.53;;;22.93
41654;BMP280;30790;52.030;7.110;2022-09-06T02:01:03;100846.97;;;22.93
41654;BMP280;30790;52.030;7.110;2022-09-06T02:03:51;100837.38;;;22.91
41654;BMP280;30790;52.030;7.110;2022-09-06T02:06:25;100858.47;;;22.95
41654;BMP280;30790;52.030;7.110;2022-09-06T02:08:57;100845.06;;;22.94
41654;BMP280;30790;52.030;7.110;2022-09-06T02:11:27;100857.38;;;22.96
41654;BMP280;30790;52.030;7.110;2022-09-06T02:14:01;100855.75;;;22.95
41654;BMP280;30790;52.030;7.110;2022-09-06T02:16:31;100855.16;;;22.93
41654;BMP280;30790;52.030;7.110;2022-09-06T02:22:09;100852.75;;;22.97
41654;BMP280;30790;52.030;7.110;2022-09-06T02:24:37;100853.31;;;22.99
41654;BMP280;30790;52.030;7.110;2022-09-06T02:27:05;100847.78;;;22.94
41654;BMP280;30790;52.030;7.110;2022-09-06T02:29:31;100852.19;;;22.95
41654;BMP280;30790;52.030;7.110;2022-09-06T02:31:58;100857.38;;;22.96
41654;BMP280;30790;52.030;7.110;2022-09-06T02:34:25;100852.44;;;22.93
41654;BMP280;30790;52.030;7.110;2022-09-06T02:36:51;100854.09;;;22.94
41654;BMP280;30790;52.030;7.110;2022-09-06T02:39:16;100855.16;;;22.93
41654;BMP280;30790;52.030;7.110;2022-09-06T02:41:44;100866.69;;;22.95
41654;BMP280;30790;52.030;7.110;2022-09-06T02:44:10;100861.47;;;22.94
41654;BMP280;30790;52.030;7.110;2022-09-06T02:46:35;100857.38;;;22.96
41654;BMP280;30790;52.030;7.110;2022-09-06T02:49:01;100856.25;;;22.92
41654;BMP280;30790;52.030;7.110;2022-09-06T02:51:27;100855.44;;;22.92
41654;BMP280;30790;52.030;7.110;2022-09-06T02:53:53;100861.47;;;22.94
41654;BMP280;30790;52.030;7.110;2022-09-06T02:56:18;100855.75;;;22.95
41654;BMP280;30790;52.030;7.110;2022-09-06T02:58:44;100857.91;;;22.93
41654;BMP280;30790;52.030;7.110;2022-09-06T03:01:09;100848.84;;;22.88
41654;BMP280;30790;52.030;7.110;2022-09-06T03:03:34;100848.63;;;22.94
41654;BMP280;30790;52.030;7.110;2022-09-06T03:06:00;100860.13;;;22.96
41654;BMP280;30790;52.030;7.110;2022-09-06T03:08:25;100858.47;;;22.95
41654;BMP280;30790;52.030;7.110;2022-09-06T03:10:55;100860.38;;;22.95
41654;BMP280;30790;52.030;7.110;2022-09-06T03:13:21;100867.25;;;22.97
41654;BMP280;30790;52.030;7.110;2022-09-06T03:15:51;100863.38;;;22.93
41654;BMP280;30790;52.030;7.110;2022-09-06T03:18:16;100859.81;;;22.93
41654;BMP280;30790;52.030;7.110;2022-09-06T03:20:42;100850.78;;;22.92
41654;BMP280;30790;52.030;7.110;2022-09-06T03:23:07;100851.63;;;22.93
41654;BMP280;30790;52.030;7.110;2022-09-06T03:25:33;100846.66;;;22.90
41654;BMP280;30790;52.030;7.110;2022-09-06T03:27:58;100845.56;;;22.91
41654;BMP280;30790;52.030;7.110;2022-09-06T03:30:24;100845.84;;;22.89
41654;BMP280;30790;52.030;7.110;2022-09-06T03:32:49;100840.94;;;22.91
41654;BMP280;30790;52.030;7.110;2022-09-06T03:35:14;100837.94;;;22.93
41654;BMP280;30790;52.030;7.110;2022-09-06T03:37:39;100831.63;;;22.92
41654;BMP280;30790;52.030;7.110;2022-09-06T03:40:05;100827.25;;;22.91
41654;BMP280;30790;52.030;7.110;2022-09-06T03:42:31;100834.38;;;22.92
41654;BMP280;30790;52.030;7.110;2022-09-06T03:44:56;100832.72;;;22.91
41654;BMP280;30790;52.030;7.110;2022-09-06T03:47:21;100839.31;;;22.95
41654;BMP280;30790;52.030;7.110;2022-09-06T03:49:47;100824.50;;;22.91
41654;BMP280;30790;52.030;7.110;2022-09-06T03:52:12;100799.78;;;22.81
41654;BMP280;30790;52.030;7.110;2022-09-06T03:54:38;100818.50;;;22.94
41654;BMP280;30790;52.030;7.110;2022-09-06T03:57:03;100817.13;;;22.92
41654;BMP280;30790;52.030;7.110;2022-09-06T03:59:28;100806.69;;;22.89
41654;BMP280;30790;52.030;7.110;2022-09-06T04:01:54;100813.00;;;22.89
41654;BMP280;30790;52.030;7.110;2022-09-06T04:04:19;100821.75;;;22.91
41654;BMP280;30790;52.030;7.110;2022-09-06T04:06:44;100819.28;;;22.90
41654;BMP280;30790;52.030;7.110;2022-09-06T04:09:09;100815.72;;;22.89
41654;BMP280;30790;52.030;7.110;2022-09-06T04:11:35;100829.97;;;22.91
41654;BMP280;30790;52.030;7.110;2022-09-06T04:14:00;100827.47;;;22.85
41654;BMP280;30790;52.030;7.110;2022-09-06T04:16:25;100818.16;;;22.86
41654;BMP280;30790;52.030;7.110;2022-09-06T04:18:51;100814.59;;;22.85
41654;BMP280;30790;52.030;7.110;2022-09-06T04:21:16;100811.06;;;22.90
41654;BMP280;30790;52.030;7.110;2022-09-06T04:23:41;100801.47;;;22.87
41654;BMP280;30790;52.030;7.110;2022-09-06T04:26:07;100807.81;;;22.93
41654;BMP280;30790;52.030;7.110;2022-09-06T04:28:32;100788.25;;;22.79
41654;BMP280;30790;52.030;7.110;2022-09-06T04:30:59;100812.47;;;22.92
41654;BMP280;30790;52.030;7.110;2022-09-06T04:33:25;100825.03;;;22.88
41654;BMP280;30790;52.030;7.110;2022-09-06T04:35:52;100825.28;;;22.87
41654;BMP280;30790;52.030;7.110;2022-09-06T04:38:18;100826.31;;;22.80
41654;BMP280;30790;52.030;7.110;2022-09-06T04:40:44;100821.69;;;22.81
41654;BMP280;30790;52.030;7.110;2022-09-06T04:43:09;100829.03;;;22.80
41654;BMP280;30790;52.030;7.110;2022-09-06T04:45:35;100833.56;;;22.70
41654;BMP280;30790;52.030;7.110;2022-09-06T04:48:00;100828.66;;;22.72
41654;BMP280;30790;52.030;7.110;2022-09-06T04:50:26;100835.03;;;22.50
41654;BMP280;30790;52.030;7.110;2022-09-06T04:52:51;100826.81;;;22.24
41654;BMP280;30790;52.030;7.110;2022-09-06T04:55:16;100825.13;;;22.01
41654;BMP280;30790;52.030;7.110;2022-09-06T04:57:42;100822.84;;;22.14
41654;BMP280;30790;52.030;7.110;2022-09-06T05:00:07;100836.63;;;22.46
41654;BMP280;30790;52.030;7.110;2022-09-06T05:02:33;100834.09;;;22.18
41654;BMP280;30790;52.030;7.110;2022-09-06T05:04:59;100832.06;;;22.30
41654;BMP280;30790;52.030;7.110;2022-09-06T05:07:24;100828.06;;;22.16
41654;BMP280;30790;52.030;7.110;2022-09-06T05:09:49;100842.09;;;22.03
41654;BMP280;30790;52.030;7.110;2022-09-06T05:12:14;100847.84;;;21.84
41654;BMP280;30790;52.030;7.110;2022-09-06T05:14:40;100846.25;;;21.88
41654;BMP280;30790;52.030;7.110;2022-09-06T05:17:05;100834.75;;;21.86
41654;BMP280;30790;52.030;7.110;2022-09-06T05:19:30;100857.19;;;21.67
41654;BMP280;30790;52.030;7.110;2022-09-06T05:21:55;100857.88;;;21.79
41654;BMP280;30790;52.030;7.110;2022-09-06T05:24:21;100855.34;;;21.72
41654;BMP280;30790;52.030;7.110;2022-09-06T05:26:46;100863.53;;;21.72
41654;BMP280;30790;52.030;7.110;2022-09-06T05:29:11;100872.81;;;21.71
41654;BMP280;30790;52.030;7.110;2022-09-06T05:31:37;100877.72;;;21.69
41654;BMP280;30790;52.030;7.110;2022-09-06T05:34:02;100868.69;;;21.69
41654;BMP280;30790;52.030;7.110;2022-09-06T05:36:29;100875.63;;;21.76
41654;BMP280;30790;52.030;7.110;2022-09-06T05:38:55;100878.84;;;21.73
41654;BMP280;30790;52.030;7.110;2022-09-06T05:41:22;100876.44;;;21.77
41654;BMP280;30790;52.030;7.110;2022-09-06T05:43:47;100863.38;;;21.62
41654;BMP280;30790;52.030;7.110;2022-09-06T05:46:12;100873.84;;;21.65
41654;BMP280;30790;52.030;7.110;2022-09-06T05:48:38;100860.00;;;21.55
41654;BMP280;30790;52.030;7.110;2022-09-06T05:51:05;100864.56;;;21.66
41654;BMP280;30790;52.030;7.110;2022-09-06T05:53:36;100845.84;;;21.58
41654;BMP280;30790;52.030;7.110;2022-09-06T05:56:03;100855.19;;;21.62
41654;BMP280;30790;52.030;7.110;2022-09-06T05:58:29;100863.38;;;21.62
41654;BMP280;30790;52.030;7.110;2022-09-06T06:01:27;100857.88;;;21.79
41654;BMP280;30790;52.030;7.110;2022-09-06T06:03:54;100872.44;;;21.84
41654;BMP280;30790;52.030;7.110;2022-09-06T06:06:21;100868.13;;;21.88
41654;BMP280;30790;52.030;7.110;2022-09-06T06:08:47;100863.50;;;21.89
41654;BMP280;30790;52.030;7.110;2022-09-06T06:11:13;100862.66;;;21.88
41654;BMP280;30790;52.030;7.110;2022-09-06T06:13:39;100876.25;;;21.83
41654;BMP280;30790;52.030;7.110;2022-09-06T06:16:06;100881.13;;;21.98
41654;BMP280;30790;52.030;7.110;2022-09-06T06:18:32;100883.69;;;22.05
41654;BMP280;30790;52.030;7.110;2022-09-06T06:23:38;100887.00;;;22.07
41654;BMP280;30790;52.030;7.110;2022-09-06T06:26:04;100885.91;;;22.08
41654;BMP280;30790;52.030;7.110;2022-09-06T06:28:30;100870.75;;;22.00
41654;BMP280;30790;52.030;7.110;2022-09-06T06:30:56;100888.97;;;22.11
41654;BMP280;30790;52.030;7.110;2022-09-06T06:33:21;100887.78;;;22.24
41654;BMP280;30790;52.030;7.110;2022-09-06T06:36:01;100888.94;;;22.28
41654;BMP280;30790;52.030;7.110;2022-09-06T06:38:34;100900.94;;;22.27
41654;BMP280;30790;52.030;7.110;2022-09-06T06:41:00;100887.31;;;22.32
41654;BMP280;30790;52.030;7.110;2022-09-06T06:43:26;100892.84;;;22.37
41654;BMP280;30790;52.030;7.110;2022-09-06T06:45:52;100883.56;;;22.38
41654;BMP280;30790;52.030;7.110;2022-09-06T06:48:17;100894.50;;;22.38
41654;BMP280;30790;52.030;7.110;2022-09-06T06:50:42;100899.47;;;22.41
41654;BMP280;30790;52.030;7.110;2022-09-06T06:53:07;100902.13;;;22.36
41654;BMP280;30790;52.030;7.110;2022-09-06T06:55:33;100894.50;;;22.38
41654;BMP280;30790;52.030;7.110;2022-09-06T06:57:59;100899.97;;;22.38
41654;BMP280;30790;52.030;7.110;2022-09-06T07:00:24;100892.84;;;22.37
41654;BMP280;30790;52.030;7.110;2022-09-06T07:02:49;100871.38;;;22.24
41654;BMP280;30790;52.030;7.110;2022-09-06T07:05:15;100872.63;;;22.38
41654;BMP280;30790;52.030;7.110;2022-09-06T07:07:40;100873.75;;;22.42
41654;BMP280;30790;52.030;7.110;2022-09-06T07:10:05;100886.53;;;22.59
41654;BMP280;30790;52.030;7.110;2022-09-06T07:12:31;100871.47;;;22.56
41654;BMP280;30790;52.030;7.110;2022-09-06T07:14:56;100859.41;;;22.52
41654;BMP280;30790;52.030;7.110;2022-09-06T07:17:21;100881.63;;;22.61
41654;BMP280;30790;52.030;7.110;2022-09-06T07:19:47;100879.94;;;22.55
41654;BMP280;30790;52.030;7.110;2022-09-06T07:22:12;100882.78;;;22.65
41654;BMP280;30790;52.030;7.110;2022-09-06T07:24:37;100876.78;;;22.68
41654;BMP280;30790;52.030;7.110;2022-09-06T07:27:03;100871.81;;;22.65
41654;BMP280;30790;52.030;7.110;2022-09-06T07:29:28;100873.78;;;22.69
41654;BMP280;30790;52.030;7.110;2022-09-06T07:31:54;100872.13;;;22.68
41654;BMP280;30790;52.030;7.110;2022-09-06T07:34:21;100873.53;;;22.71
41654;BMP280;30790;52.030;7.110;2022-09-06T07:36:52;100877.09;;;22.71
41654;BMP280;30790;52.030;7.110;2022-09-06T07:39:17;100867.50;;;22.69
41654;BMP280;30790;52.030;7.110;2022-09-06T07:41:42;100876.25;;;22.71
41654;BMP280;30790;52.030;7.110;2022-09-06T07:44:08;100869.41;;;22.68
41654;BMP280;30790;52.030;7.110;2022-09-06T07:46:33;100867.44;;;22.64
41654;BMP280;30790;52.030;7.110;2022-09-06T07:48:58;100875.69;;;22.69
41654;BMP280;30790;52.030;7.110;2022-09-06T07:51:24;100880.34;;;22.68
41654;BMP280;30790;52.030;7.110;2022-09-06T07:53:51;100881.75;;;22.71
41654;BMP280;30790;52.030;7.110;2022-09-06T07:56:20;100893.75;;;22.70
41654;BMP280;30790;52.030;7.110;2022-09-06T07:58:47;100878.19;;;22.70
41654;BMP280;30790;52.030;7.110;2022-09-06T08:01:14;100884.22;;;22.72
41654;BMP280;30790;52.030;7.110;2022-09-06T08:03:40;100881.25;;;22.74
41654;BMP280;30790;52.030;7.110;2022-09-06T08:06:06;100871.13;;;22.74
41654;BMP280;30790;52.030;7.110;2022-09-06T08:08:31;100871.63;;;22.71
41654;BMP280;30790;52.030;7.110;2022-09-06T08:10:56;100854.88;;;22.68
41654;BMP280;30790;52.030;7.110;2022-09-06T08:13:22;100879.91;;;22.76
41654;BMP280;30790;52.030;7.110;2022-09-06T08:15:47;100874.03;;;22.68
41654;BMP280;30790;52.030;7.110;2022-09-06T08:18:12;100878.19;;;22.70
41654;BMP280;30790;52.030;7.110;2022-09-06T08:20:37;100879.56;;;22.73
41654;BMP280;30790;52.030;7.110;2022-09-06T08:23:08;100881.25;;;22.74
41654;BMP280;30790;52.030;7.110;2022-09-06T08:25:34;100874.63;;;22.70
41654;BMP280;30790;52.030;7.110;2022-09-06T08:27:59;100868.41;;;22.74
41654;BMP280;30790;52.030;7.110;2022-09-06T08:30:24;100869.72;;;22.72
41654;BMP280;30790;52.030;7.110;2022-09-06T08:32:51;100865.00;;;22.67
41654;BMP280;30790;52.030;7.110;2022-09-06T08:35:17;100870.47;;;22.67
41654;BMP280;30790;52.030;7.110;2022-09-06T08:37:42;100861.44;;;22.67
41654;BMP280;30790;52.030;7.110;2022-09-06T08:40:07;100868.00;;;22.66
41654;BMP280;30790;52.030;7.110;2022-09-06T08:42:37;100869.97;;;22.70
41654;BMP280;30790;52.030;7.110;2022-09-06T08:45:04;100866.78;;;22.78
41654;BMP280;30790;52.030;7.110;2022-09-06T08:47:33;100866.53;;;22.80
41654;BMP280;30790;52.030;7.110;2022-09-06T08:50:06;100871.44;;;22.78
41654;BMP280;30790;52.030;7.110;2022-09-06T08:55:40;100859.13;;;22.80
41654;BMP280;30790;52.030;7.110;2022-09-06T09:00:59;100857.75;;;22.78
41654;BMP280;30790;52.030;7.110;2022-09-06T09:03:34;100845.69;;;22.74
41654;BMP280;30790;52.030;7.110;2022-09-06T09:06:00;100853.66;;;22.80
41654;BMP280;30790;52.030;7.110;2022-09-06T09:09:01;100846.81;;;22.78
41654;BMP280;30790;52.030;7.110;2022-09-06T09:11:28;100848.53;;;22.84
41654;BMP280;30790;52.030;7.110;2022-09-06T09:14:23;100847.72;;;22.84
41654;BMP280;30790;52.030;7.110;2022-09-06T09:16:54;100843.44;;;22.71
41654;BMP280;30790;52.030;7.110;2022-09-06T09:19:20;100843.13;;;22.67
41654;BMP280;30790;52.030;7.110;2022-09-06T09:21:46;100834.47;;;22.75
41654;BMP280;30790;52.030;7.110;2022-09-06T09:24:13;100834.59;;;22.86
41654;BMP280;30790;52.030;7.110;2022-09-06T09:26:58;100838.72;;;22.88
41654;BMP280;30790;52.030;7.110;2022-09-06T09:29:27;100844.44;;;22.87
41654;BMP280;30790;52.030;7.110;2022-09-06T09:31:53;100845.00;;;22.89
41654;BMP280;30790;52.030;7.110;2022-09-06T09:34:38;100843.91;;;22.90
41654;BMP280;30790;52.030;7.110;2022-09-06T09:37:24;100840.06;;;22.86
41654;BMP280;30790;52.030;7.110;2022-09-06T09:39:55;100834.31;;;22.87
41654;BMP280;30790;52.030;7.110;2022-09-06T09:42:35;100834.31;;;22.87
41654;BMP280;30790;52.030;7.110;2022-09-06T09:45:28;100828.84;;;22.87
41654;BMP280;30790;52.030;7.110;2022-09-06T09:47:54;100833.22;;;22.88
41654;BMP280;30790;52.030;7.110;2022-09-06T09:50:26;100829.41;;;22.89
41654;BMP280;30790;52.030;7.110;2022-09-06T09:52:52;100825.03;;;22.88
41654;BMP280;30790;52.030;7.110;2022-09-06T09:55:22;100823.09;;;22.89
41654;BMP280;30790;52.030;7.110;2022-09-06T09:57:49;100833.84;;;22.95
41654;BMP280;30790;52.030;7.110;2022-09-06T10:00:32;100823.94;;;22.89
41654;BMP280;30790;52.030;7.110;2022-09-06T10:02:57;100827.50;;;22.90
41654;BMP280;30790;52.030;7.110;2022-09-06T10:05:23;100823.94;;;22.89
41654;BMP280;30790;52.030;7.110;2022-09-06T10:07:50;100828.88;;;22.92
41654;BMP280;30790;52.030;7.110;2022-09-06T10:10:25;100826.72;;;22.94
41654;BMP280;30790;52.030;7.110;2022-09-06T10:15:39;100833.00;;;22.95
41654;BMP280;30790;52.030;7.110;2022-09-06T10:18:05;100820.41;;;22.94
41654;BMP280;30790;52.030;7.110;2022-09-06T10:20:49;100824.84;;;23.00
41654;BMP280;30790;52.030;7.110;2022-09-06T10:29:07;100819.13;;;23.01
41654;BMP280;30790;52.030;7.110;2022-09-06T10:39:50;100799.63;;;22.98
41654;BMP280;30790;52.030;7.110;2022-09-06T10:45:32;100795.50;;;22.95
41654;BMP280;30790;52.030;7.110;2022-09-06T10:48:04;100795.00;;;22.98
41654;BMP280;30790;52.030;7.110;2022-09-06T10:50:56;100797.72;;;22.98
41654;BMP280;30790;52.030;7.110;2022-09-06T10:53:45;100797.13;;;22.91
41654;BMP280;30790;52.030;7.110;2022-09-06T10:56:17;100783.13;;;22.88
41654;BMP280;30790;52.030;7.110;2022-09-06T10:58:58;100796.03;;;22.92
41654;BMP280;30790;52.030;7.110;2022-09-06T11:01:39;100783.44;;;22.91
41654;BMP280;30790;52.030;7.110;2022-09-06T11:04:08;100791.13;;;22.94
41654;BMP280;30790;52.030;7.110;2022-09-06T11:06:43;100790.03;;;22.95
41654;BMP280;30790;52.030;7.110;2022-09-06T11:11:51;100794.66;;;22.90
41654;BMP280;30790;52.030;7.110;2022-09-06T11:14:22;100793.34;;;22.97
41654;BMP280;30790;52.030;7.110;2022-09-06T11:16:58;100775.00;;;22.98
41654;BMP280;30790;52.030;7.110;2022-09-06T11:19:29;100779.09;;;22.95
41654;BMP280;30790;52.030;7.110;2022-09-06T11:22:37;100782.44;;;23.02
41654;BMP280;30790;52.030;7.110;2022-09-06T11:27:59;100763.88;;;23.09
41654;BMP280;30790;52.030;7.110;2022-09-06T11:30:28;100758.66;;;23.08
41654;BMP280;30790;52.030;7.110;2022-09-06T11:33:22;100772.09;;;23.09
41654;BMP280;30790;52.030;7.110;2022-09-06T11:35:49;100766.06;;;23.07
41654;BMP280;30790;52.030;7.110;2022-09-06T11:40:47;100766.06;;;23.07
41654;BMP280;30790;52.030;7.110;2022-09-06T11:43:57;100768.81;;;23.12
41654;BMP280;30790;52.030;7.110;2022-09-06T11:46:03;100759.22;;;23.10
41654;BMP280;30790;52.030;7.110;2022-09-06T11:48:30;100759.53;;;23.13
41654;BMP280;30790;52.030;7.110;2022-09-06T11:51:07;100760.59;;;23.07
41654;BMP280;30790;52.030;7.110;2022-09-06T12:01:39;100765.03;;;23.19
41654;BMP280;30790;52.030;7.110;2022-09-06T12:04:06;100765.84;;;23.19
41654;BMP280;30790;52.030;7.110;2022-09-06T12:06:35;100760.63;;;23.18
41654;BMP280;30790;52.030;7.110;2022-09-06T12:09:31;100770.81;;;23.22
41654;BMP280;30790;52.030;7.110;2022-09-06T12:11:57;100766.97;;;23.23
41654;BMP280;30790;52.030;7.110;2022-09-06T12:14:39;100773.28;;;23.24
41654;BMP280;30790;52.030;7.110;2022-09-06T12:19:47;100760.09;;;23.21
41654;BMP280;30790;52.030;7.110;2022-09-06T12:27:34;100753.00;;;23.25
41654;BMP280;30790;52.030;7.110;2022-09-06T12:30:12;100759.03;;;23.27
41654;BMP280;30790;52.030;7.110;2022-09-06T12:32:48;100751.09;;;23.25
41654;BMP280;30790;52.030;7.110;2022-09-06T12:35:27;100760.47;;;23.29
41654;BMP280;30790;52.030;7.110;2022-09-06T12:38:00;100757.13;;;23.27
41654;BMP280;30790;52.030;7.110;2022-09-06T12:40:30;100746.44;;;23.26
41654;BMP280;30790;52.030;7.110;2022-09-06T12:42:56;100746.72;;;23.24
41654;BMP280;30790;52.030;7.110;2022-09-06T12:45:22;100742.94;;;23.30
41654;BMP280;30790;52.030;7.110;2022-09-06T12:47:49;100732.47;;;23.22
41654;BMP280;30790;52.030;7.110;2022-09-06T12:50:24;100738.22;;;23.26
41654;BMP280;30790;52.030;7.110;2022-09-06T12:52:55;100735.50;;;23.26
41654;BMP280;30790;52.030;7.110;2022-09-06T12:55:24;100742.63;;;23.27
41654;BMP280;30790;52.030;7.110;2022-09-06T12:57:53;100733.00;;;23.19
41654;BMP280;30790;52.030;7.110;2022-09-06T13:00:20;100737.13;;;23.27
41654;BMP280;30790;52.030;7.110;2022-09-06T13:03:12;100734.38;;;23.22
41654;BMP280;30790;52.030;7.110;2022-09-06T13:05:43;100728.91;;;23.22
41654;BMP280;30790;52.030;7.110;2022-09-06T13:08:15;100732.19;;;23.24
41654;BMP280;30790;52.030;7.110;2022-09-06T13:10:44;100720.94;;;23.20
41654;BMP280;30790;52.030;7.110;2022-09-06T13:13:17;100712.47;;;23.22
41654;BMP280;30790;52.030;7.110;2022-09-06T13:15:45;100720.13;;;23.20
41654;BMP280;30790;52.030;7.110;2022-09-06T13:18:21;100728.09;;;23.26
41654;BMP280;30790;52.030;7.110;2022-09-06T13:21:27;100720.16;;;23.25
41654;BMP280;30790;52.030;7.110;2022-09-06T13:23:54;100713.28;;;23.22
41654;BMP280;30790;52.030;7.110;2022-09-06T13:26:37;100717.41;;;23.25
41654;BMP280;30790;52.030;7.110;2022-09-06T13:31:36;100717.41;;;23.25
41654;BMP280;30790;52.030;7.110;2022-09-06T13:34:02;100716.59;;;23.24
41654;BMP280;30790;52.030;7.110;2022-09-06T13:36:31;100715.75;;;23.24
41654;BMP280;30790;52.030;7.110;2022-09-06T13:38:57;100710.28;;;23.24
41654;BMP280;30790;52.030;7.110;2022-09-06T13:41:37;100710.28;;;23.24
41654;BMP280;30790;52.030;7.110;2022-09-06T13:46:39;100708.06;;;23.21
41654;BMP280;30790;52.030;7.110;2022-09-06T13:49:05;100703.97;;;23.23
41654;BMP280;30790;52.030;7.110;2022-09-06T13:51:30;100704.81;;;23.24
41654;BMP280;30790;52.030;7.110;2022-09-06T13:54:06;100713.31;;;23.27
41654;BMP280;30790;52.030;7.110;2022-09-06T13:56:32;100701.53;;;23.27
41654;BMP280;30790;52.030;7.110;2022-09-06T13:58:57;100707.28;;;23.25
41654;BMP280;30790;52.030;7.110;2022-09-06T14:01:23;100694.38;;;23.21
41654;BMP280;30790;52.030;7.110;2022-09-06T14:03:48;100689.19;;;23.24
41654;BMP280;30790;52.030;7.110;2022-09-06T14:06:14;100681.78;;;23.20
41654;BMP280;30790;52.030;7.110;2022-09-06T14:08:40;100690.28;;;23.23
41654;BMP280;30790;52.030;7.110;2022-09-06T14:11:05;100674.69;;;23.24
41654;BMP280;30790;52.030;7.110;2022-09-06T14:13:31;100682.41;;;23.32
41654;BMP280;30790;52.030;7.110;2022-09-06T14:15:56;100683.50;;;23.31
41654;BMP280;30790;52.030;7.110;2022-09-06T14:18:21;100688.97;;;23.31
41654;BMP280;30790;52.030;7.110;2022-09-06T14:20:51;100691.44;;;23.32
41654;BMP280;30790;52.030;7.110;2022-09-06T14:23:17;100682.38;;;23.27
41654;BMP280;30790;52.030;7.110;2022-09-06T14:25:42;100692.22;;;23.28
41654;BMP280;30790;52.030;7.110;2022-09-06T14:28:08;100695.56;;;23.30
41654;BMP280;30790;52.030;7.110;2022-09-06T14:30:33;100692.53;;;23.31
41654;BMP280;30790;52.030;7.110;2022-09-06T14:32:58;100693.63;;;23.30
41654;BMP280;30790;52.030;7.110;2022-09-06T14:35:24;100677.41;;;23.19
41654;BMP280;30790;52.030;7.110;2022-09-06T14:37:50;100697.69;;;23.28
41654;BMP280;30790;52.030;7.110;2022-09-06T14:40:27;100689.25;;;23.29
41654;BMP280;30790;52.030;7.110;2022-09-06T14:42:53;100688.97;;;23.31
41654;BMP280;30790;52.030;7.110;2022-09-06T14:45:18;100688.97;;;23.31
41654;BMP280;30790;52.030;7.110;2022-09-06T14:47:44;100698.31;;;23.35
41654;BMP280;30790;52.030;7.110;2022-09-06T14:50:10;100680.78;;;23.36
41654;BMP280;30790;52.030;7.110;2022-09-06T14:52:35;100683.53;;;23.36
41654;BMP280;30790;52.030;7.110;2022-09-06T14:55:00;100674.78;;;23.39
41654;BMP280;30790;52.030;7.110;2022-09-06T14:57:26;100674.78;;;23.44
41654;BMP280;30790;52.030;7.110;2022-09-06T14:59:53;100674.81;;;23.49
41654;BMP280;30790;52.030;7.110;2022-09-06T15:02:18;100672.59;;;23.46
41654;BMP280;30790;52.030;7.110;2022-09-06T15:04:44;100670.66;;;23.41
41654;BMP280;30790;52.030;7.110;2022-09-06T15:07:09;100663.28;;;23.42
41654;BMP280;30790;52.030;7.110;2022-09-06T15:09:36;100658.09;;;23.46
41654;BMP280;30790;52.030;7.110;2022-09-06T15:12:01;100673.72;;;23.50
41654;BMP280;30790;52.030;7.110;2022-09-06T15:14:27;100664.66;;;23.50
41654;BMP280;30790;52.030;7.110;2022-09-06T15:16:57;100668.50;;;23.49
41654;BMP280;30790;52.030;7.110;2022-09-06T15:19:28;100661.38;;;23.48
41654;BMP280;30790;52.030;7.110;2022-09-06T15:21:54;100662.19;;;23.48
41654;BMP280;30790;52.030;7.110;2022-09-06T15:24:20;100653.69;;;23.44
41654;BMP280;30790;52.030;7.110;2022-09-06T15:26:45;100659.72;;;23.47
41654;BMP280;30790;52.030;7.110;2022-09-06T15:29:12;100657.00;;;23.47
41654;BMP280;30790;52.030;7.110;2022-09-06T15:31:38;100653.72;;;23.50